sensor_id;sensor_type;location;lat;lon;timestamp;P1;durP1;ratioP1;P2;durP2;ratioP2
28605;SDS011;46498;49.968;7.754;2023-02-11T00:02:34;90.35;;;32.30;;
28605;SDS011;46498;49.968;7.754;2023-02-11T00:07:35;93.25;;;34.47;;
28605;SDS011;46498;49.968;7.754;2023-02-11T00:12:36;97.62;;;35.80;;
28605;SDS011;46498;49.968;7.754;2023-02-11T00:17:37;79.72;;;31.62;;
28605;SDS011;46498;49.968;7.754;2023-02-11T00:22:38;91.32;;;33.97;;
28605;SDS011;46498;49.968;7.754;2023-02-11T00:27:39;88.93;;;32.15;;
28605;SDS011;46498;49.968;7.754;2023-02-11T00:32:40;76.00;;;29.87;;
28605;SDS011;46498;49.968;7.754;2023-02-11T00:37:42;80.93;;;31.92;;
28605;SDS011;46498;49.968;7.754;2023-02-11T00:42:44;94.25;;;34.35;;
28605;SDS011;46498;49.968;7.754;2023-02-11T00:47:44;83.68;;;31.23;;
28605;SDS011;46498;49.968;7.754;2023-02-11T00:52:45;86.63;;;32.50;;
28605;SDS011;46498;49.968;7.754;2023-02-11T00:57:46;68.18;;;27.30;;
28605;SDS011;46498;49.968;7.754;2023-02-11T01:02:49;68.72;;;28.30;;
28605;SDS011;46498;49.968;7.754;2023-02-11T01:07:50;69.43;;;27.10;;
28605;SDS011;46498;49.968;7.754;2023-02-11T01:12:51;63.20;;;26.17;;
28605;SDS011;46498;49.968;7.754;2023-02-11T01:17:52;64.72;;;27.87;;
28605;SDS011;46498;49.968;7.754;2023-02-11T01:22:53;66.10;;;26.98;;
28605;SDS011;46498;49.968;7.754;2023-02-11T01:27:54;66.62;;;25.95;;
28605;SDS011;46498;49.968;7.754;2023-02-11T01:32:56;68.25;;;26.80;;
28605;SDS011;46498;49.968;7.754;2023-02-11T01:37:57;55.03;;;24.73;;
28605;SDS011;46498;49.968;7.754;2023-02-11T01:42:58;54.92;;;24.42;;
28605;SDS011;46498;49.968;7.754;2023-02-11T01:48:00;63.67;;;26.33;;
28605;SDS011;46498;49.968;7.754;2023-02-11T01:53:01;52.15;;;24.08;;
28605;SDS011;46498;49.968;7.754;2023-02-11T02:02:36;62.53;;;25.40;;
28605;SDS011;46498;49.968;7.754;2023-02-11T02:07:59;61.85;;;25.92;;
28605;SDS011;46498;49.968;7.754;2023-02-11T02:13:18;65.28;;;26.17;;
28605;SDS011;46498;49.968;7.754;2023-02-11T02:18:39;57.95;;;24.33;;
28605;SDS011;46498;49.968;7.754;2023-02-11T02:36:31;62.38;;;26.00;;
28605;SDS011;46498;49.968;7.754;2023-02-11T02:41:37;56.28;;;24.70;;
28605;SDS011;46498;49.968;7.754;2023-02-11T02:46:39;64.43;;;26.65;;
28605;SDS011;46498;49.968;7.754;2023-02-11T03:04:47;67.80;;;27.60;;
28605;SDS011;46498;49.968;7.754;2023-02-11T03:10:42;67.30;;;26.87;;
28605;SDS011;46498;49.968;7.754;2023-02-11T03:15:47;67.40;;;25.67;;
28605;SDS011;46498;49.968;7.754;2023-02-11T03:20:52;64.55;;;28.52;;
28605;SDS011;46498;49.968;7.754;2023-02-11T03:25:58;67.87;;;29.65;;
28605;SDS011;46498;49.968;7.754;2023-02-11T03:31:16;70.32;;;29.70;;
28605;SDS011;46498;49.968;7.754;2023-02-11T03:36:23;70.70;;;28.90;;
28605;SDS011;46498;49.968;7.754;2023-02-11T03:41:31;64.82;;;30.15;;
28605;SDS011;46498;49.968;7.754;2023-02-11T03:46:34;77.43;;;29.73;;
28605;SDS011;46498;49.968;7.754;2023-02-11T03:51:38;70.10;;;29.37;;
28605;SDS011;46498;49.968;7.754;2023-02-11T03:56:42;76.40;;;30.50;;
28605;SDS011;46498;49.968;7.754;2023-02-11T04:01:50;71.22;;;31.02;;
28605;SDS011;46498;49.968;7.754;2023-02-11T04:06:51;76.18;;;31.35;;
28605;SDS011;46498;49.968;7.754;2023-02-11T04:11:52;78.10;;;31.08;;
28605;SDS011;46498;49.968;7.754;2023-02-11T04:16:53;76.62;;;32.53;;
28605;SDS011;46498;49.968;7.754;2023-02-11T04:21:54;73.60;;;31.48;;
28605;SDS011;46498;49.968;7.754;2023-02-11T04:26:55;78.62;;;34.03;;
28605;SDS011;46498;49.968;7.754;2023-02-11T04:31:55;79.30;;;33.08;;
28605;SDS011;46498;49.968;7.754;2023-02-11T04:36:57;75.18;;;32.25;;
28605;SDS011;46498;49.968;7.754;2023-02-11T04:41:57;78.82;;;33.13;;
28605;SDS011;46498;49.968;7.754;2023-02-11T04:46:58;86.43;;;35.85;;
28605;SDS011;46498;49.968;7.754;2023-02-11T04:51:59;85.65;;;34.28;;
28605;SDS011;46498;49.968;7.754;2023-02-11T04:57:00;86.65;;;33.55;;
28605;SDS011;46498;49.968;7.754;2023-02-11T05:02:02;87.95;;;34.70;;
28605;SDS011;46498;49.968;7.754;2023-02-11T05:07:03;87.22;;;34.35;;
28605;SDS011;46498;49.968;7.754;2023-02-11T05:12:04;86.37;;;33.60;;
28605;SDS011;46498;49.968;7.754;2023-02-11T05:17:05;90.03;;;35.00;;
28605;SDS011;46498;49.968;7.754;2023-02-11T05:22:06;96.68;;;36.95;;
28605;SDS011;46498;49.968;7.754;2023-02-11T05:27:07;99.53;;;39.33;;
28605;SDS011;46498;49.968;7.754;2023-02-11T05:32:07;88.50;;;36.70;;
28605;SDS011;46498;49.968;7.754;2023-02-11T05:37:08;93.07;;;36.22;;
28605;SDS011;46498;49.968;7.754;2023-02-11T05:42:09;94.15;;;36.90;;
28605;SDS011;46498;49.968;7.754;2023-02-11T05:47:10;90.25;;;36.22;;
28605;SDS011;46498;49.968;7.754;2023-02-11T05:52:11;91.20;;;36.75;;
28605;SDS011;46498;49.968;7.754;2023-02-11T05:57:12;92.62;;;35.53;;
28605;SDS011;46498;49.968;7.754;2023-02-11T06:02:13;93.47;;;34.20;;
28605;SDS011;46498;49.968;7.754;2023-02-11T06:07:14;85.30;;;34.90;;
28605;SDS011;46498;49.968;7.754;2023-02-11T06:12:15;97.47;;;35.58;;
28605;SDS011;46498;49.968;7.754;2023-02-11T06:17:16;76.40;;;33.72;;
28605;SDS011;46498;49.968;7.754;2023-02-11T06:22:17;83.03;;;34.15;;
28605;SDS011;46498;49.968;7.754;2023-02-11T06:27:17;125.65;;;48.47;;
28605;SDS011;46498;49.968;7.754;2023-02-11T06:32:18;187.32;;;60.22;;
28605;SDS011;46498;49.968;7.754;2023-02-11T06:37:42;213.30;;;67.30;;
28605;SDS011;46498;49.968;7.754;2023-02-11T06:42:43;320.70;;;102.22;;
28605;SDS011;46498;49.968;7.754;2023-02-11T06:47:44;88.22;;;35.85;;
28605;SDS011;46498;49.968;7.754;2023-02-11T06:52:45;98.65;;;37.38;;
28605;SDS011;46498;49.968;7.754;2023-02-11T06:57:46;107.30;;;41.70;;
28605;SDS011;46498;49.968;7.754;2023-02-11T07:02:47;95.90;;;38.00;;
28605;SDS011;46498;49.968;7.754;2023-02-11T07:07:48;85.93;;;32.15;;
28605;SDS011;46498;49.968;7.754;2023-02-11T07:12:49;95.90;;;36.17;;
28605;SDS011;46498;49.968;7.754;2023-02-11T07:17:49;171.02;;;49.38;;
28605;SDS011;46498;49.968;7.754;2023-02-11T07:22:50;185.68;;;47.55;;
28605;SDS011;46498;49.968;7.754;2023-02-11T07:27:51;81.60;;;31.77;;
28605;SDS011;46498;49.968;7.754;2023-02-11T07:32:52;70.60;;;29.80;;
28605;SDS011;46498;49.968;7.754;2023-02-11T07:37:53;70.40;;;27.48;;
28605;SDS011;46498;49.968;7.754;2023-02-11T07:42:53;66.18;;;27.17;;
28605;SDS011;46498;49.968;7.754;2023-02-11T07:47:54;65.03;;;25.80;;
28605;SDS011;46498;49.968;7.754;2023-02-11T07:52:56;69.03;;;26.55;;
28605;SDS011;46498;49.968;7.754;2023-02-11T07:57:56;64.43;;;26.95;;
28605;SDS011;46498;49.968;7.754;2023-02-11T08:02:57;59.63;;;25.62;;
28605;SDS011;46498;49.968;7.754;2023-02-11T08:07:58;58.70;;;25.60;;
28605;SDS011;46498;49.968;7.754;2023-02-11T08:12:59;60.40;;;24.50;;
28605;SDS011;46498;49.968;7.754;2023-02-11T08:17:59;56.80;;;24.58;;
28605;SDS011;46498;49.968;7.754;2023-02-11T08:23:01;62.58;;;25.42;;
28605;SDS011;46498;49.968;7.754;2023-02-11T08:28:02;66.12;;;25.92;;
28605;SDS011;46498;49.968;7.754;2023-02-11T08:33:03;59.97;;;24.25;;
28605;SDS011;46498;49.968;7.754;2023-02-11T08:38:03;55.05;;;23.65;;
28605;SDS011;46498;49.968;7.754;2023-02-11T08:43:04;57.62;;;24.08;;
28605;SDS011;46498;49.968;7.754;2023-02-11T08:48:08;54.17;;;23.02;;
28605;SDS011;46498;49.968;7.754;2023-02-11T08:53:09;59.33;;;22.77;;
28605;SDS011;46498;49.968;7.754;2023-02-11T08:58:10;49.35;;;21.48;;
28605;SDS011;46498;49.968;7.754;2023-02-11T09:03:11;45.25;;;19.67;;
28605;SDS011;46498;49.968;7.754;2023-02-11T09:08:13;41.30;;;17.73;;
28605;SDS011;46498;49.968;7.754;2023-02-11T09:13:14;47.08;;;19.95;;
28605;SDS011;46498;49.968;7.754;2023-02-11T09:18:16;48.83;;;21.15;;
28605;SDS011;46498;49.968;7.754;2023-02-11T09:23:17;45.38;;;20.42;;
28605;SDS011;46498;49.968;7.754;2023-02-11T09:28:18;49.85;;;20.40;;
28605;SDS011;46498;49.968;7.754;2023-02-11T09:33:19;48.25;;;19.27;;
28605;SDS011;46498;49.968;7.754;2023-02-11T09:38:20;45.97;;;20.23;;
28605;SDS011;46498;49.968;7.754;2023-02-11T09:43:21;45.83;;;19.48;;
28605;SDS011;46498;49.968;7.754;2023-02-11T09:48:37;48.30;;;20.00;;
28605;SDS011;46498;49.968;7.754;2023-02-11T09:53:42;44.55;;;20.27;;
28605;SDS011;46498;49.968;7.754;2023-02-11T09:58:43;46.55;;;20.37;;
28605;SDS011;46498;49.968;7.754;2023-02-11T10:12:46;56.70;;;21.98;;
28605;SDS011;46498;49.968;7.754;2023-02-11T10:21:38;61.58;;;22.95;;
28605;SDS011;46498;49.968;7.754;2023-02-11T10:26:50;58.87;;;23.38;;
28605;SDS011;46498;49.968;7.754;2023-02-11T10:31:51;59.33;;;23.90;;
28605;SDS011;46498;49.968;7.754;2023-02-11T10:36:53;53.28;;;22.10;;
28605;SDS011;46498;49.968;7.754;2023-02-11T10:42:07;53.87;;;22.98;;
28605;SDS011;46498;49.968;7.754;2023-02-11T10:47:13;52.08;;;21.00;;
28605;SDS011;46498;49.968;7.754;2023-02-11T10:52:25;44.30;;;20.70;;
28605;SDS011;46498;49.968;7.754;2023-02-11T10:57:35;45.28;;;20.37;;
28605;SDS011;46498;49.968;7.754;2023-02-11T11:02:44;49.67;;;21.65;;
28605;SDS011;46498;49.968;7.754;2023-02-11T11:07:55;49.90;;;20.85;;
28605;SDS011;46498;49.968;7.754;2023-02-11T11:12:58;47.92;;;21.45;;
28605;SDS011;46498;49.968;7.754;2023-02-11T11:24:42;46.22;;;18.48;;
28605;SDS011;46498;49.968;7.754;2023-02-11T11:29:45;49.92;;;21.55;;
28605;SDS011;46498;49.968;7.754;2023-02-11T11:34:53;55.75;;;22.23;;
28605;SDS011;46498;49.968;7.754;2023-02-11T11:48:30;36.13;;;15.57;;
28605;SDS011;46498;49.968;7.754;2023-02-11T11:53:39;32.08;;;14.75;;
28605;SDS011;46498;49.968;7.754;2023-02-11T11:58:53;32.08;;;14.85;;
28605;SDS011;46498;49.968;7.754;2023-02-11T12:26:14;27.87;;;12.30;;
28605;SDS011;46498;49.968;7.754;2023-02-11T12:31:22;29.87;;;12.73;;
28605;SDS011;46498;49.968;7.754;2023-02-11T12:37:03;37.38;;;15.65;;
28605;SDS011;46498;49.968;7.754;2023-02-11T12:42:29;27.85;;;12.43;;
28605;SDS011;46498;49.968;7.754;2023-02-11T12:48:07;25.48;;;11.23;;
28605;SDS011;46498;49.968;7.754;2023-02-11T12:54:21;22.02;;;10.82;;
28605;SDS011;46498;49.968;7.754;2023-02-11T12:59:50;26.48;;;11.95;;
28605;SDS011;46498;49.968;7.754;2023-02-11T13:11:29;30.05;;;12.37;;
28605;SDS011;46498;49.968;7.754;2023-02-11T13:16:41;25.58;;;11.65;;
28605;SDS011;46498;49.968;7.754;2023-02-11T13:21:58;26.40;;;12.32;;
28605;SDS011;46498;49.968;7.754;2023-02-11T13:29:07;29.17;;;13.07;;
28605;SDS011;46498;49.968;7.754;2023-02-11T13:34:22;29.98;;;13.77;;
28605;SDS011;46498;49.968;7.754;2023-02-11T13:40:00;31.00;;;13.02;;
28605;SDS011;46498;49.968;7.754;2023-02-11T13:45:15;29.08;;;12.93;;
28605;SDS011;46498;49.968;7.754;2023-02-11T13:50:21;29.50;;;13.38;;
28605;SDS011;46498;49.968;7.754;2023-02-11T13:55:25;28.75;;;12.68;;
28605;SDS011;46498;49.968;7.754;2023-02-11T14:06:13;32.15;;;12.90;;
28605;SDS011;46498;49.968;7.754;2023-02-11T14:17:26;32.28;;;16.12;;
28605;SDS011;46498;49.968;7.754;2023-02-11T14:22:29;33.38;;;14.25;;
28605;SDS011;46498;49.968;7.754;2023-02-11T14:27:41;29.23;;;13.80;;
28605;SDS011;46498;49.968;7.754;2023-02-11T14:32:56;26.27;;;12.77;;
28605;SDS011;46498;49.968;7.754;2023-02-11T14:40:39;29.52;;;13.80;;
28605;SDS011;46498;49.968;7.754;2023-02-11T14:45:52;28.30;;;12.43;;
28605;SDS011;46498;49.968;7.754;2023-02-11T14:56:24;27.62;;;11.82;;
28605;SDS011;46498;49.968;7.754;2023-02-11T15:01:34;72.20;;;34.00;;
28605;SDS011;46498;49.968;7.754;2023-02-11T15:06:41;42.17;;;19.95;;
28605;SDS011;46498;49.968;7.754;2023-02-11T15:11:49;68.47;;;32.88;;
28605;SDS011;46498;49.968;7.754;2023-02-11T15:16:52;48.10;;;21.40;;
28605;SDS011;46498;49.968;7.754;2023-02-11T15:21:55;40.17;;;17.90;;
28605;SDS011;46498;49.968;7.754;2023-02-11T15:27:01;33.90;;;13.65;;
28605;SDS011;46498;49.968;7.754;2023-02-11T15:32:15;85.65;;;31.27;;
28605;SDS011;46498;49.968;7.754;2023-02-11T15:37:26;50.63;;;20.58;;
28605;SDS011;46498;49.968;7.754;2023-02-11T15:42:31;62.90;;;24.17;;
28605;SDS011;46498;49.968;7.754;2023-02-11T15:47:51;38.63;;;16.20;;
28605;SDS011;46498;49.968;7.754;2023-02-11T15:52:56;55.47;;;21.80;;
28605;SDS011;46498;49.968;7.754;2023-02-11T15:58:00;44.47;;;17.67;;
28605;SDS011;46498;49.968;7.754;2023-02-11T16:03:01;61.60;;;24.58;;
28605;SDS011;46498;49.968;7.754;2023-02-11T16:08:17;45.20;;;19.02;;
28605;SDS011;46498;49.968;7.754;2023-02-11T16:13:25;44.47;;;19.08;;
28605;SDS011;46498;49.968;7.754;2023-02-11T16:18:29;43.03;;;18.48;;
28605;SDS011;46498;49.968;7.754;2023-02-11T16:23:39;45.20;;;19.58;;
28605;SDS011;46498;49.968;7.754;2023-02-11T16:28:43;98.55;;;37.85;;
28605;SDS011;46498;49.968;7.754;2023-02-11T16:33:44;57.05;;;24.77;;
28605;SDS011;46498;49.968;7.754;2023-02-11T16:38:45;46.42;;;21.65;;
28605;SDS011;46498;49.968;7.754;2023-02-11T16:43:46;36.15;;;18.27;;
28605;SDS011;46498;49.968;7.754;2023-02-11T16:48:47;29.87;;;14.73;;
28605;SDS011;46498;49.968;7.754;2023-02-11T16:53:48;28.70;;;14.50;;
28605;SDS011;46498;49.968;7.754;2023-02-11T16:58:49;35.00;;;14.65;;
28605;SDS011;46498;49.968;7.754;2023-02-11T17:03:50;31.40;;;16.10;;
28605;SDS011;46498;49.968;7.754;2023-02-11T17:08:51;32.47;;;14.87;;
28605;SDS011;46498;49.968;7.754;2023-02-11T17:13:52;30.75;;;14.07;;
28605;SDS011;46498;49.968;7.754;2023-02-11T17:18:53;27.52;;;13.52;;
28605;SDS011;46498;49.968;7.754;2023-02-11T17:23:54;28.67;;;14.07;;
28605;SDS011;46498;49.968;7.754;2023-02-11T17:28:55;29.00;;;15.02;;
28605;SDS011;46498;49.968;7.754;2023-02-11T17:33:56;29.80;;;14.50;;
28605;SDS011;46498;49.968;7.754;2023-02-11T17:38:56;26.08;;;13.18;;
28605;SDS011;46498;49.968;7.754;2023-02-11T17:43:58;27.02;;;13.15;;
28605;SDS011;46498;49.968;7.754;2023-02-11T17:49:01;28.12;;;14.02;;
28605;SDS011;46498;49.968;7.754;2023-02-11T17:54:04;33.25;;;14.82;;
28605;SDS011;46498;49.968;7.754;2023-02-11T17:59:07;32.05;;;14.82;;
28605;SDS011;46498;49.968;7.754;2023-02-11T18:04:14;30.27;;;14.63;;
28605;SDS011;46498;49.968;7.754;2023-02-11T18:09:17;39.58;;;16.90;;
28605;SDS011;46498;49.968;7.754;2023-02-11T18:14:18;41.58;;;19.48;;
28605;SDS011;46498;49.968;7.754;2023-02-11T18:19:20;39.90;;;17.35;;
28605;SDS011;46498;49.968;7.754;2023-02-11T18:24:21;38.42;;;17.33;;
28605;SDS011;46498;49.968;7.754;2023-02-11T18:29:21;36.22;;;16.15;;
28605;SDS011;46498;49.968;7.754;2023-02-11T18:34:22;44.78;;;18.48;;
28605;SDS011;46498;49.968;7.754;2023-02-11T18:39:23;36.75;;;16.45;;
28605;SDS011;46498;49.968;7.754;2023-02-11T18:44:25;38.53;;;17.45;;
28605;SDS011;46498;49.968;7.754;2023-02-11T18:49:26;35.35;;;16.90;;
28605;SDS011;46498;49.968;7.754;2023-02-11T18:54:27;41.33;;;17.75;;
28605;SDS011;46498;49.968;7.754;2023-02-11T18:59:28;56.72;;;24.98;;
28605;SDS011;46498;49.968;7.754;2023-02-11T19:04:29;52.60;;;25.23;;
28605;SDS011;46498;49.968;7.754;2023-02-11T19:09:30;49.70;;;20.52;;
28605;SDS011;46498;49.968;7.754;2023-02-11T19:14:31;57.97;;;26.92;;
28605;SDS011;46498;49.968;7.754;2023-02-11T19:19:36;59.15;;;25.88;;
28605;SDS011;46498;49.968;7.754;2023-02-11T19:24:37;44.85;;;20.12;;
28605;SDS011;46498;49.968;7.754;2023-02-11T19:29:38;61.90;;;26.02;;
28605;SDS011;46498;49.968;7.754;2023-02-11T19:34:39;49.53;;;22.17;;
28605;SDS011;46498;49.968;7.754;2023-02-11T19:39:41;50.45;;;21.20;;
28605;SDS011;46498;49.968;7.754;2023-02-11T19:44:42;45.08;;;19.95;;
28605;SDS011;46498;49.968;7.754;2023-02-11T19:49:43;45.95;;;20.37;;
28605;SDS011;46498;49.968;7.754;2023-02-11T19:54:44;48.97;;;20.55;;
28605;SDS011;46498;49.968;7.754;2023-02-11T19:59:44;46.65;;;21.05;;
28605;SDS011;46498;49.968;7.754;2023-02-11T20:04:45;46.42;;;19.83;;
28605;SDS011;46498;49.968;7.754;2023-02-11T20:09:46;44.72;;;19.55;;
28605;SDS011;46498;49.968;7.754;2023-02-11T20:14:47;50.90;;;21.08;;
28605;SDS011;46498;49.968;7.754;2023-02-11T20:19:48;44.17;;;19.42;;
28605;SDS011;46498;49.968;7.754;2023-02-11T20:24:48;46.88;;;19.70;;
28605;SDS011;46498;49.968;7.754;2023-02-11T20:29:49;49.72;;;20.60;;
28605;SDS011;46498;49.968;7.754;2023-02-11T20:34:50;45.35;;;19.25;;
28605;SDS011;46498;49.968;7.754;2023-02-11T20:39:52;49.40;;;21.83;;
28605;SDS011;46498;49.968;7.754;2023-02-11T20:44:52;45.42;;;20.50;;
28605;SDS011;46498;49.968;7.754;2023-02-11T20:49:53;42.20;;;19.60;;
28605;SDS011;46498;49.968;7.754;2023-02-11T20:54:54;43.78;;;19.60;;
28605;SDS011;46498;49.968;7.754;2023-02-11T20:59:55;38.67;;;17.52;;
28605;SDS011;46498;49.968;7.754;2023-02-11T21:04:56;42.03;;;19.87;;
28605;SDS011;46498;49.968;7.754;2023-02-11T21:09:57;55.12;;;23.10;;
28605;SDS011;46498;49.968;7.754;2023-02-11T21:14:58;50.50;;;21.87;;
28605;SDS011;46498;49.968;7.754;2023-02-11T21:19:58;47.30;;;21.80;;
28605;SDS011;46498;49.968;7.754;2023-02-11T21:24:59;48.97;;;20.40;;
28605;SDS011;46498;49.968;7.754;2023-02-11T21:30:01;46.95;;;21.30;;
28605;SDS011;46498;49.968;7.754;2023-02-11T21:35:01;68.62;;;29.12;;
28605;SDS011;46498;49.968;7.754;2023-02-11T21:40:02;46.03;;;20.15;;
28605;SDS011;46498;49.968;7.754;2023-02-11T21:45:04;42.38;;;19.60;;
28605;SDS011;46498;49.968;7.754;2023-02-11T21:50:05;45.53;;;19.23;;
28605;SDS011;46498;49.968;7.754;2023-02-11T21:55:07;53.20;;;22.42;;
28605;SDS011;46498;49.968;7.754;2023-02-11T22:00:08;49.42;;;21.67;;
28605;SDS011;46498;49.968;7.754;2023-02-11T22:05:10;53.10;;;21.73;;
28605;SDS011;46498;49.968;7.754;2023-02-11T22:10:10;49.13;;;21.33;;
28605;SDS011;46498;49.968;7.754;2023-02-11T22:15:11;48.42;;;21.65;;
28605;SDS011;46498;49.968;7.754;2023-02-11T22:20:12;61.25;;;22.87;;
28605;SDS011;46498;49.968;7.754;2023-02-11T22:25:13;55.10;;;23.12;;
28605;SDS011;46498;49.968;7.754;2023-02-11T22:30:14;53.42;;;23.77;;
28605;SDS011;46498;49.968;7.754;2023-02-11T22:35:15;53.90;;;26.25;;
28605;SDS011;46498;49.968;7.754;2023-02-11T22:40:16;105.55;;;35.28;;
28605;SDS011;46498;49.968;7.754;2023-02-11T22:45:17;55.12;;;25.35;;
28605;SDS011;46498;49.968;7.754;2023-02-11T22:50:18;50.92;;;23.30;;
28605;SDS011;46498;49.968;7.754;2023-02-11T22:55:19;55.25;;;22.02;;
28605;SDS011;46498;49.968;7.754;2023-02-11T23:00:20;48.70;;;21.50;;
28605;SDS011;46498;49.968;7.754;2023-02-11T23:05:23;49.28;;;20.85;;
28605;SDS011;46498;49.968;7.754;2023-02-11T23:10:24;99.95;;;33.70;;
28605;SDS011;46498;49.968;7.754;2023-02-11T23:15:25;152.57;;;49.08;;
28605;SDS011;46498;49.968;7.754;2023-02-11T23:20:25;102.45;;;35.53;;
28605;SDS011;46498;49.968;7.754;2023-02-11T23:25:26;92.93;;;34.63;;
28605;SDS011;46498;49.968;7.754;2023-02-11T23:30:27;63.65;;;25.85;;
28605;SDS011;46498;49.968;7.754;2023-02-11T23:35:28;66.97;;;26.80;;
28605;SDS011;46498;49.968;7.754;2023-02-11T23:40:29;93.87;;;33.55;;
28605;SDS011;46498;49.968;7.754;2023-02-11T23:45:30;71.93;;;28.38;;
28605;SDS011;46498;49.968;7.754;2023-02-11T23:50:31;82.72;;;31.02;;
28605;SDS011;46498;49.968;7.754;2023-02-11T23:55:32;84.85;;;31.25;;
